createdAt,value
2017-05-14T00:00:02.087Z,0
2017-05-14T00:00:42.556Z,0
2017-05-14T00:01:23.033Z,0
2017-05-14T00:02:05.274Z,0
2017-05-14T00:02:45.754Z,0
2017-05-14T00:03:26.208Z,0
2017-05-14T00:04:06.722Z,0
2017-05-14T00:04:47.255Z,0
2017-05-14T00:05:27.722Z,0
2017-05-14T00:06:08.176Z,0
2017-05-14T00:06:48.670Z,0
2017-05-14T00:07:29.256Z,0
2017-05-14T00:08:09.713Z,0
2017-05-14T00:08:50.159Z,0
2017-05-14T00:09:30.668Z,0
2017-05-14T00:10:11.120Z,0
2017-05-14T00:10:51.630Z,0
2017-05-14T00:11:32.138Z,0
2017-05-14T00:12:12.595Z,0
2017-05-14T00:12:53.057Z,0
2017-05-14T00:13:33.530Z,0
2017-05-14T00:14:13.997Z,0
2017-05-14T00:14:54.489Z,0
2017-05-14T00:15:34.970Z,0
2017-05-14T00:16:15.425Z,0
2017-05-14T00:16:55.959Z,0
2017-05-14T00:17:36.439Z,0
2017-05-14T00:18:16.931Z,0
2017-05-14T00:18:57.412Z,0
2017-05-14T00:19:37.939Z,0
2017-05-14T00:20:18.475Z,0
2017-05-14T00:20:58.967Z,0
2017-05-14T00:21:39.422Z,0
2017-05-14T00:22:19.934Z,0
2017-05-14T00:23:00.403Z,0
2017-05-14T00:23:40.916Z,0
2017-05-14T00:24:21.406Z,0
2017-05-14T00:25:02.091Z,0
2017-05-14T00:25:42.599Z,0
2017-05-14T00:26:23.095Z,0
2017-05-14T00:27:03.559Z,0
2017-05-14T00:27:44.080Z,0
2017-05-14T00:28:24.511Z,0
2017-05-14T00:29:04.981Z,0
2017-05-14T00:29:45.441Z,0
2017-05-14T00:30:25.977Z,0
2017-05-14T00:31:06.422Z,0
2017-05-14T00:31:46.928Z,0
2017-05-14T00:32:27.431Z,0
2017-05-14T00:33:07.945Z,0
2017-05-14T00:33:48.384Z,0
2017-05-14T00:34:28.873Z,0
2017-05-14T00:35:09.360Z,0
2017-05-14T00:35:49.883Z,0
2017-05-14T00:36:30.378Z,0
2017-05-14T00:37:10.857Z,0
2017-05-14T00:37:51.341Z,0
2017-05-14T00:38:31.825Z,0
2017-05-14T00:39:12.362Z,0
2017-05-14T00:39:52.793Z,0
2017-05-14T00:40:33.304Z,0
2017-05-14T00:41:13.758Z,0
2017-05-14T00:41:54.285Z,0
2017-05-14T00:42:34.780Z,0
2017-05-14T00:43:15.294Z,0
2017-05-14T00:43:55.725Z,0
2017-05-14T00:44:36.183Z,0
2017-05-14T00:45:16.676Z,0
2017-05-14T00:45:57.149Z,0
2017-05-14T00:46:37.636Z,0
2017-05-14T00:47:18.115Z,0
2017-05-14T00:47:58.666Z,0
2017-05-14T00:48:39.088Z,0
2017-05-14T00:49:19.592Z,0
2017-05-14T00:50:00.062Z,0
2017-05-14T00:50:40.490Z,0
2017-05-14T00:51:20.979Z,0
2017-05-14T00:52:01.482Z,0
2017-05-14T00:52:41.939Z,0
2017-05-14T00:53:22.425Z,0
2017-05-14T00:54:02.918Z,0
2017-05-14T00:54:43.414Z,0
2017-05-14T00:55:23.893Z,0
2017-05-14T00:56:04.428Z,0
2017-05-14T00:56:44.896Z,0
2017-05-14T00:57:25.372Z,0
2017-05-14T00:58:05.887Z,0
2017-05-14T00:58:46.396Z,0
2017-05-14T00:59:26.875Z,0
2017-05-14T01:00:07.313Z,0
2017-05-14T01:00:47.819Z,0
2017-05-14T01:01:28.443Z,0
2017-05-14T01:02:08.927Z,0
2017-05-14T01:02:49.401Z,0
2017-05-14T01:03:29.876Z,0
2017-05-14T01:04:10.363Z,0
2017-05-14T01:04:50.892Z,0
2017-05-14T01:05:31.331Z,0
2017-05-14T01:06:11.852Z,0
2017-05-14T01:06:52.316Z,0
2017-05-14T01:07:32.780Z,0
2017-05-14T01:08:13.310Z,0
2017-05-14T01:08:53.747Z,0
2017-05-14T01:09:34.237Z,0
2017-05-14T01:10:14.689Z,0
2017-05-14T01:10:55.157Z,0
2017-05-14T01:11:35.627Z,0
2017-05-14T01:12:16.090Z,0
2017-05-14T01:12:56.589Z,0
2017-05-14T01:13:37.089Z,0
2017-05-14T01:14:17.574Z,0
2017-05-14T01:14:58.040Z,0
2017-05-14T01:15:38.524Z,0
2017-05-14T01:16:19.017Z,0
2017-05-14T01:16:59.514Z,0
2017-05-14T01:17:39.952Z,0
2017-05-14T01:18:20.463Z,0
2017-05-14T01:19:00.941Z,0
2017-05-14T01:19:41.382Z,0
2017-05-14T01:20:21.891Z,0
2017-05-14T01:21:02.342Z,0
2017-05-14T01:21:42.837Z,0
2017-05-14T01:22:23.304Z,0
2017-05-14T01:23:03.793Z,0
2017-05-14T01:23:44.266Z,0
2017-05-14T01:24:24.715Z,0
2017-05-14T01:25:05.210Z,0
2017-05-14T01:25:45.687Z,0
2017-05-14T01:26:26.161Z,0
2017-05-14T01:27:06.634Z,0
2017-05-14T01:27:47.113Z,0
2017-05-14T01:28:27.597Z,0
2017-05-14T01:29:08.087Z,0
2017-05-14T01:29:48.587Z,0
2017-05-14T01:30:29.049Z,0
2017-05-14T01:31:09.534Z,0
2017-05-14T01:31:50.033Z,0
2017-05-14T01:32:30.485Z,0
2017-05-14T01:33:11.018Z,0
2017-05-14T01:33:51.544Z,0
2017-05-14T01:34:31.997Z,0
2017-05-14T01:35:12.464Z,0
2017-05-14T01:35:52.949Z,0
2017-05-14T01:36:33.430Z,0
2017-05-14T01:37:13.875Z,0
2017-05-14T01:37:54.344Z,0
2017-05-14T01:38:34.856Z,0
2017-05-14T01:39:15.372Z,0
2017-05-14T01:39:55.845Z,0
2017-05-14T01:40:36.307Z,0
2017-05-14T01:41:16.821Z,0
2017-05-14T01:41:57.296Z,0
2017-05-14T01:42:37.750Z,0
2017-05-14T01:43:18.217Z,0
2017-05-14T01:43:58.724Z,0
2017-05-14T01:44:39.165Z,0
2017-05-14T01:45:19.642Z,0
2017-05-14T01:46:00.125Z,0
2017-05-14T01:46:40.595Z,0
2017-05-14T01:47:21.106Z,0
2017-05-14T01:48:01.547Z,0
2017-05-14T01:48:42.039Z,0
2017-05-14T01:49:22.540Z,0
2017-05-14T01:50:03.018Z,0
2017-05-14T01:50:43.528Z,0
2017-05-14T01:51:24.025Z,0
2017-05-14T01:52:04.489Z,0
2017-05-14T01:52:44.975Z,0
2017-05-14T01:53:25.441Z,0
2017-05-14T01:54:05.953Z,0
2017-05-14T01:54:46.487Z,0
2017-05-14T01:55:26.934Z,0
2017-05-14T01:56:07.416Z,0
2017-05-14T01:56:47.918Z,0
2017-05-14T01:57:28.399Z,0
2017-05-14T01:58:08.903Z,0
2017-05-14T01:58:49.352Z,0
2017-05-14T01:59:29.845Z,0
2017-05-14T02:00:10.307Z,0
2017-05-14T02:00:50.835Z,0
2017-05-14T02:01:31.327Z,0
2017-05-14T02:02:11.781Z,0
2017-05-14T02:02:52.266Z,0
2017-05-14T02:03:32.757Z,0
2017-05-14T02:04:13.282Z,0
2017-05-14T02:04:53.766Z,0
2017-05-14T02:05:34.264Z,0
2017-05-14T02:06:14.705Z,0
2017-05-14T02:06:55.167Z,0
2017-05-14T02:07:35.666Z,0
2017-05-14T02:08:16.184Z,0
2017-05-14T02:08:56.668Z,0
2017-05-14T02:09:37.147Z,0
2017-05-14T02:10:17.631Z,0
2017-05-14T02:10:58.105Z,0
2017-05-14T02:11:38.576Z,0
2017-05-14T02:12:19.093Z,0
2017-05-14T02:12:59.542Z,0
2017-05-14T02:13:40.055Z,0
2017-05-14T02:14:20.543Z,0
2017-05-14T02:15:01.003Z,0
2017-05-14T02:15:41.498Z,0
2017-05-14T02:16:21.953Z,0
2017-05-14T02:17:02.467Z,0
2017-05-14T02:17:42.931Z,0
2017-05-14T02:18:23.404Z,0
2017-05-14T02:19:03.873Z,0
2017-05-14T02:19:44.353Z,0
2017-05-14T02:20:24.870Z,0
2017-05-14T02:21:05.350Z,0
2017-05-14T02:21:45.800Z,0
2017-05-14T02:22:26.316Z,0
2017-05-14T02:23:06.819Z,0
2017-05-14T02:23:47.288Z,0
2017-05-14T02:24:27.759Z,0
2017-05-14T02:25:08.259Z,0
2017-05-14T02:25:48.743Z,0
2017-05-14T02:26:29.216Z,0
2017-05-14T02:27:09.696Z,0
2017-05-14T02:27:50.226Z,0
2017-05-14T02:28:30.674Z,0
2017-05-14T02:29:11.154Z,0
2017-05-14T02:29:51.624Z,0
2017-05-14T02:30:32.109Z,0
2017-05-14T02:31:12.696Z,0
2017-05-14T02:31:53.192Z,0
2017-05-14T02:32:33.674Z,0
2017-05-14T02:33:14.180Z,0
2017-05-14T02:33:54.679Z,0
2017-05-14T02:34:35.164Z,0
2017-05-14T02:35:15.714Z,0
2017-05-14T02:35:56.203Z,0
2017-05-14T02:36:36.640Z,0
2017-05-14T02:37:17.108Z,0
2017-05-14T02:37:57.583Z,0
2017-05-14T02:38:38.066Z,0
2017-05-14T02:39:18.605Z,0
2017-05-14T02:39:59.071Z,0
2017-05-14T02:40:39.531Z,0
2017-05-14T02:41:20.015Z,0
2017-05-14T02:42:00.505Z,0
2017-05-14T02:42:40.960Z,0
2017-05-14T02:43:21.418Z,0
2017-05-14T02:44:01.904Z,0
2017-05-14T02:44:42.359Z,0
2017-05-14T02:45:22.850Z,0
2017-05-14T02:46:03.344Z,0
2017-05-14T02:46:43.808Z,0
2017-05-14T02:47:24.302Z,0
2017-05-14T02:48:04.761Z,0
2017-05-14T02:48:45.224Z,0
2017-05-14T02:49:25.712Z,0
2017-05-14T02:50:06.234Z,0
2017-05-14T02:50:46.666Z,0
2017-05-14T02:51:27.155Z,0
2017-05-14T02:52:09.380Z,0
2017-05-14T02:52:49.848Z,0
2017-05-14T02:53:30.304Z,0
2017-05-14T02:54:10.806Z,0
2017-05-14T02:54:51.281Z,0
2017-05-14T02:55:31.757Z,0
2017-05-14T02:56:12.212Z,0
2017-05-14T02:56:52.685Z,0
2017-05-14T02:57:33.170Z,0
2017-05-14T02:58:13.678Z,0
2017-05-14T02:58:54.141Z,0
2017-05-14T02:59:34.620Z,0
2017-05-14T03:00:15.134Z,0
2017-05-14T03:00:55.617Z,0
2017-05-14T03:01:36.136Z,0
2017-05-14T03:02:16.637Z,0
2017-05-14T03:02:57.197Z,0
2017-05-14T03:03:37.684Z,0
2017-05-14T03:04:18.170Z,0
2017-05-14T03:04:58.665Z,0
2017-05-14T03:05:39.146Z,0
2017-05-14T03:06:19.672Z,0
2017-05-14T03:07:00.127Z,0
2017-05-14T03:07:40.630Z,0
2017-05-14T03:08:21.080Z,0
2017-05-14T03:09:01.562Z,0
2017-05-14T03:09:42.006Z,0
2017-05-14T03:10:22.525Z,0
2017-05-14T03:11:02.937Z,0
2017-05-14T03:11:43.416Z,0
2017-05-14T03:12:23.895Z,0
2017-05-14T03:13:04.369Z,0
2017-05-14T03:13:44.853Z,0
2017-05-14T03:14:25.309Z,0
2017-05-14T03:15:05.803Z,0
2017-05-14T03:15:46.272Z,0
2017-05-14T03:16:26.738Z,0
2017-05-14T03:17:07.446Z,0
2017-05-14T03:17:47.895Z,0
2017-05-14T03:18:28.408Z,0
2017-05-14T03:19:08.850Z,0
2017-05-14T03:19:49.362Z,0
2017-05-14T03:20:29.828Z,0
2017-05-14T03:21:10.298Z,0
2017-05-14T03:21:50.823Z,0
2017-05-14T03:22:31.269Z,0
2017-05-14T03:23:11.818Z,0
2017-05-14T03:23:52.286Z,0
2017-05-14T03:24:32.747Z,0
2017-05-14T03:25:13.210Z,0
2017-05-14T03:25:53.660Z,0
2017-05-14T03:26:34.145Z,0
2017-05-14T03:27:14.657Z,0
2017-05-14T03:27:55.144Z,5
2017-05-14T03:28:35.588Z,5
2017-05-14T03:29:16.112Z,5
2017-05-14T03:29:56.612Z,5
2017-05-14T03:30:37.055Z,5
2017-05-14T03:31:17.572Z,5
2017-05-14T03:31:58.021Z,5
2017-05-14T03:32:38.503Z,5
2017-05-14T03:33:18.969Z,5
2017-05-14T03:33:59.457Z,5
2017-05-14T03:34:39.940Z,5
2017-05-14T03:35:20.498Z,5
2017-05-14T03:36:00.957Z,10
2017-05-14T03:36:41.417Z,10
2017-05-14T03:37:21.869Z,10
2017-05-14T03:38:02.338Z,10
2017-05-14T03:38:42.825Z,10
2017-05-14T03:39:23.289Z,10
2017-05-14T03:40:03.752Z,10
2017-05-14T03:40:44.218Z,15
2017-05-14T03:41:24.722Z,15
2017-05-14T03:42:05.195Z,15
2017-05-14T03:42:45.686Z,15
2017-05-14T03:43:26.198Z,15
2017-05-14T03:44:06.675Z,15
2017-05-14T03:44:47.147Z,15
2017-05-14T03:45:27.615Z,15
2017-05-14T03:46:08.089Z,15
2017-05-14T03:46:48.582Z,15
2017-05-14T03:47:29.070Z,15
2017-05-14T03:48:09.489Z,15
2017-05-14T03:48:49.965Z,15
2017-05-14T03:49:30.434Z,15
2017-05-14T03:50:10.940Z,15
2017-05-14T03:50:51.419Z,10
2017-05-14T03:51:31.904Z,15
2017-05-14T03:52:12.373Z,15
2017-05-14T03:52:52.819Z,15
2017-05-14T03:53:33.284Z,15
2017-05-14T03:54:13.769Z,15
2017-05-14T03:54:54.273Z,15
2017-05-14T03:55:34.756Z,15
2017-05-14T03:56:15.203Z,15
2017-05-14T03:56:55.671Z,20
2017-05-14T03:57:36.175Z,20
2017-05-14T03:58:16.640Z,20
2017-05-14T03:58:57.223Z,20
2017-05-14T03:59:37.644Z,20
2017-05-14T04:00:18.116Z,25
2017-05-14T04:00:58.614Z,25
2017-05-14T04:01:39.086Z,25
2017-05-14T04:02:19.561Z,25
2017-05-14T04:03:00.044Z,25
2017-05-14T04:03:40.502Z,20
2017-05-14T04:04:20.984Z,20
2017-05-14T04:05:01.502Z,20
2017-05-14T04:05:42.003Z,15
2017-05-14T04:06:22.435Z,15
2017-05-14T04:07:02.963Z,20
2017-05-14T04:07:43.418Z,20
2017-05-14T04:08:23.888Z,20
2017-05-14T04:09:04.374Z,20
2017-05-14T04:09:44.850Z,20
2017-05-14T04:10:25.358Z,25
2017-05-14T04:11:05.841Z,25
2017-05-14T04:11:46.314Z,30
2017-05-14T04:12:26.818Z,30
2017-05-14T04:13:07.450Z,30
2017-05-14T04:13:47.928Z,30
2017-05-14T04:14:28.422Z,30
2017-05-14T04:15:08.874Z,30
2017-05-14T04:15:49.364Z,35
2017-05-14T04:16:29.851Z,35
2017-05-14T04:17:10.300Z,35
2017-05-14T04:17:50.769Z,40
2017-05-14T04:18:31.276Z,40
2017-05-14T04:19:11.777Z,45
2017-05-14T04:19:52.273Z,45
2017-05-14T04:20:32.707Z,45
2017-05-14T04:21:13.186Z,45
2017-05-14T04:21:53.703Z,45
2017-05-14T04:22:34.191Z,45
2017-05-14T04:23:14.669Z,50
2017-05-14T04:23:55.135Z,50
2017-05-14T04:24:35.641Z,50
2017-05-14T04:25:16.099Z,55
2017-05-14T04:25:56.599Z,55
2017-05-14T04:26:37.056Z,55
2017-05-14T04:27:17.617Z,55
2017-05-14T04:27:58.102Z,55
2017-05-14T04:28:38.548Z,55
2017-05-14T04:29:19.023Z,55
2017-05-14T04:29:59.510Z,50
2017-05-14T04:30:39.973Z,45
2017-05-14T04:31:20.454Z,45
2017-05-14T04:32:00.931Z,45
2017-05-14T04:32:41.572Z,45
2017-05-14T04:33:21.998Z,45
2017-05-14T04:34:02.466Z,45
2017-05-14T04:34:42.964Z,45
2017-05-14T04:35:23.434Z,50
2017-05-14T04:36:03.912Z,50
2017-05-14T04:36:44.401Z,55
2017-05-14T04:37:24.891Z,55
2017-05-14T04:38:05.360Z,55
2017-05-14T04:38:45.885Z,55
2017-05-14T04:39:26.324Z,55
2017-05-14T04:40:06.785Z,60
2017-05-14T04:40:47.301Z,60
2017-05-14T04:41:27.717Z,60
2017-05-14T04:42:08.177Z,60
2017-05-14T04:42:48.671Z,65
2017-05-14T04:43:29.150Z,70
2017-05-14T04:44:09.593Z,75
2017-05-14T04:44:50.083Z,85
2017-05-14T04:45:30.616Z,100
2017-05-14T04:46:11.044Z,105
2017-05-14T04:46:51.544Z,110
2017-05-14T04:47:31.996Z,115
2017-05-14T04:48:12.483Z,120
2017-05-14T04:48:52.962Z,120
2017-05-14T04:49:33.408Z,120
2017-05-14T04:50:13.908Z,115
2017-05-14T04:50:54.397Z,105
2017-05-14T04:51:34.862Z,85
2017-05-14T04:52:15.368Z,70
2017-05-14T04:52:55.871Z,65
2017-05-14T04:53:36.355Z,65
2017-05-14T04:54:16.823Z,60
2017-05-14T04:54:57.314Z,60
2017-05-14T04:55:37.834Z,55
2017-05-14T04:56:18.292Z,55
2017-05-14T04:56:58.812Z,50
2017-05-14T04:57:39.284Z,50
2017-05-14T04:58:19.772Z,55
2017-05-14T04:59:00.245Z,55
2017-05-14T04:59:40.760Z,60
2017-05-14T05:00:21.241Z,70
2017-05-14T05:01:01.670Z,85
2017-05-14T05:01:42.148Z,85
2017-05-14T05:02:22.652Z,70
2017-05-14T05:03:03.135Z,50
2017-05-14T05:03:43.572Z,40
2017-05-14T05:04:24.061Z,30
2017-05-14T05:05:04.556Z,25
2017-05-14T05:05:45.046Z,30
2017-05-14T05:06:25.571Z,35
2017-05-14T05:07:06.042Z,45
2017-05-14T05:07:46.526Z,55
2017-05-14T05:08:26.974Z,60
2017-05-14T05:09:07.556Z,65
2017-05-14T05:09:48.067Z,60
2017-05-14T05:10:28.532Z,55
2017-05-14T05:11:09.009Z,50
2017-05-14T05:11:49.450Z,50
2017-05-14T05:12:29.973Z,55
2017-05-14T05:13:10.445Z,60
2017-05-14T05:13:50.944Z,65
2017-05-14T05:14:31.419Z,70
2017-05-14T05:15:11.929Z,75
2017-05-14T05:15:52.417Z,70
2017-05-14T05:16:32.869Z,60
2017-05-14T05:17:13.351Z,55
2017-05-14T05:17:53.830Z,60
2017-05-14T05:18:34.368Z,60
2017-05-14T05:19:14.856Z,65
2017-05-14T05:19:55.334Z,75
2017-05-14T05:20:35.823Z,80
2017-05-14T05:21:16.341Z,80
2017-05-14T05:21:56.838Z,80
2017-05-14T05:22:37.297Z,80
2017-05-14T05:23:17.781Z,90
2017-05-14T05:23:58.297Z,95
2017-05-14T05:24:38.762Z,95
2017-05-14T05:25:19.254Z,90
2017-05-14T05:25:59.744Z,90
2017-05-14T05:26:40.287Z,85
2017-05-14T05:27:20.716Z,85
2017-05-14T05:28:01.207Z,95
2017-05-14T05:28:41.644Z,105
2017-05-14T05:29:22.155Z,125
2017-05-14T05:30:02.657Z,135
2017-05-14T05:30:43.125Z,145
2017-05-14T05:31:23.642Z,140
2017-05-14T05:32:04.137Z,135
2017-05-14T05:32:44.602Z,140
2017-05-14T05:33:25.112Z,155
2017-05-14T05:34:05.558Z,160
2017-05-14T05:34:46.021Z,165
2017-05-14T05:35:26.590Z,165
2017-05-14T05:36:07.038Z,140
2017-05-14T05:36:47.529Z,140
2017-05-14T05:37:28.029Z,130
2017-05-14T05:38:08.468Z,130
2017-05-14T05:38:48.996Z,125
2017-05-14T05:39:29.439Z,130
2017-05-14T05:40:09.928Z,135
2017-05-14T05:40:50.379Z,135
2017-05-14T05:41:30.881Z,135
2017-05-14T05:42:12.900Z,135
2017-05-14T05:42:53.374Z,140
2017-05-14T05:43:33.893Z,140
2017-05-14T05:44:14.379Z,140
2017-05-14T05:44:54.845Z,140
2017-05-14T05:45:35.361Z,140
2017-05-14T05:46:15.800Z,140
2017-05-14T05:46:56.304Z,140
2017-05-14T05:47:36.768Z,140
2017-05-14T05:48:17.271Z,140
2017-05-14T05:48:57.729Z,140
2017-05-14T05:49:38.181Z,140
2017-05-14T05:50:18.635Z,145
2017-05-14T05:50:59.113Z,145
2017-05-14T05:51:39.614Z,140
2017-05-14T05:52:20.115Z,140
2017-05-14T05:53:00.591Z,140
2017-05-14T05:53:41.104Z,145
2017-05-14T05:54:21.575Z,145
2017-05-14T05:55:02.043Z,145
2017-05-14T05:55:42.500Z,150
2017-05-14T05:56:22.976Z,150
2017-05-14T05:57:03.469Z,150
2017-05-14T05:57:43.963Z,150
2017-05-14T05:58:24.458Z,150
2017-05-14T05:59:04.964Z,145
2017-05-14T05:59:45.439Z,145
2017-05-14T06:00:25.928Z,145
2017-05-14T06:01:06.405Z,145
2017-05-14T06:01:46.874Z,145
2017-05-14T06:02:27.342Z,145
2017-05-14T06:03:07.832Z,145
2017-05-14T06:03:48.322Z,145
2017-05-14T06:04:28.791Z,140
2017-05-14T06:05:09.289Z,140
2017-05-14T06:05:49.789Z,140
2017-05-14T06:06:30.290Z,140
2017-05-14T06:07:10.792Z,140
2017-05-14T06:07:51.303Z,140
2017-05-14T06:08:31.789Z,145
2017-05-14T06:09:12.274Z,145
2017-05-14T06:09:52.738Z,145
2017-05-14T06:10:33.235Z,145
2017-05-14T06:11:13.691Z,145
2017-05-14T06:11:54.178Z,145
2017-05-14T06:12:34.677Z,145
2017-05-14T06:13:15.158Z,145
2017-05-14T06:13:55.626Z,145
2017-05-14T06:14:36.125Z,145
2017-05-14T06:15:16.567Z,145
2017-05-14T06:15:57.057Z,145
2017-05-14T06:16:37.530Z,145
2017-05-14T06:17:18.032Z,145
2017-05-14T06:17:58.493Z,145
2017-05-14T06:18:38.968Z,145
2017-05-14T06:19:19.450Z,145
2017-05-14T06:19:59.926Z,145
2017-05-14T06:20:40.423Z,145
2017-05-14T06:21:20.985Z,145
2017-05-14T06:22:01.510Z,145
2017-05-14T06:22:41.999Z,145
2017-05-14T06:23:22.480Z,150
2017-05-14T06:24:03.005Z,150
2017-05-14T06:24:43.480Z,150
2017-05-14T06:25:23.957Z,150
2017-05-14T06:26:04.469Z,150
2017-05-14T06:26:44.919Z,150
2017-05-14T06:27:25.428Z,150
2017-05-14T06:28:05.888Z,150
2017-05-14T06:28:46.373Z,150
2017-05-14T06:29:26.837Z,150
2017-05-14T06:30:07.320Z,150
2017-05-14T06:30:47.803Z,150
2017-05-14T06:31:28.317Z,150
2017-05-14T06:32:08.792Z,150
2017-05-14T06:32:49.322Z,150
2017-05-14T06:33:29.769Z,150
2017-05-14T06:34:10.275Z,150
2017-05-14T06:34:50.742Z,150
2017-05-14T06:35:31.230Z,150
2017-05-14T06:36:11.761Z,150
2017-05-14T06:36:52.265Z,150
2017-05-14T06:37:32.778Z,150
2017-05-14T06:38:13.247Z,150
2017-05-14T06:38:53.737Z,150
2017-05-14T06:39:34.200Z,150
2017-05-14T06:40:14.726Z,150
2017-05-14T06:40:55.194Z,150
2017-05-14T06:41:35.655Z,150
2017-05-14T06:42:16.127Z,150
2017-05-14T06:42:56.673Z,150
2017-05-14T06:43:37.125Z,150
2017-05-14T06:44:17.634Z,150
2017-05-14T06:44:58.085Z,150
2017-05-14T06:45:38.580Z,150
2017-05-14T06:46:19.048Z,150
2017-05-14T06:46:59.546Z,150
2017-05-14T06:47:40.038Z,150
2017-05-14T06:48:20.531Z,150
2017-05-14T06:49:00.994Z,150
2017-05-14T06:49:41.471Z,150
2017-05-14T06:50:21.925Z,150
2017-05-14T06:51:02.579Z,150
2017-05-14T06:51:43.077Z,150
2017-05-14T06:52:23.514Z,150
2017-05-14T06:53:04.043Z,150
2017-05-14T06:53:44.515Z,150
2017-05-14T06:54:25.015Z,150
2017-05-14T06:55:05.491Z,150
2017-05-14T06:55:45.947Z,150
2017-05-14T06:56:26.515Z,150
2017-05-14T06:57:06.934Z,150
2017-05-14T06:57:47.412Z,150
2017-05-14T06:58:27.937Z,155
2017-05-14T06:59:08.428Z,150
2017-05-14T06:59:48.923Z,155
2017-05-14T07:00:29.426Z,155
2017-05-14T07:01:09.914Z,155
2017-05-14T07:01:50.393Z,155
2017-05-14T07:02:30.856Z,150
2017-05-14T07:03:11.345Z,150
2017-05-14T07:03:51.847Z,150
2017-05-14T07:04:32.353Z,150
2017-05-14T07:05:12.799Z,150
2017-05-14T07:05:53.289Z,150
2017-05-14T07:06:33.772Z,150
2017-05-14T07:07:14.300Z,150
2017-05-14T07:07:54.737Z,150
2017-05-14T07:08:35.264Z,150
2017-05-14T07:09:15.714Z,155
2017-05-14T07:09:56.210Z,150
2017-05-14T07:10:36.662Z,155
2017-05-14T07:11:17.170Z,155
2017-05-14T07:11:57.606Z,155
2017-05-14T07:12:38.089Z,155
2017-05-14T07:13:18.565Z,155
2017-05-14T07:13:59.043Z,155
2017-05-14T07:14:39.542Z,155
2017-05-14T07:15:20.020Z,155
2017-05-14T07:16:00.491Z,155
2017-05-14T07:16:41.014Z,155
2017-05-14T07:17:21.523Z,155
2017-05-14T07:18:01.983Z,155
2017-05-14T07:18:42.471Z,155
2017-05-14T07:19:22.962Z,155
2017-05-14T07:20:03.514Z,155
2017-05-14T07:20:43.944Z,155
2017-05-14T07:21:24.432Z,155
2017-05-14T07:22:04.939Z,155
2017-05-14T07:22:45.472Z,155
2017-05-14T07:23:25.936Z,155
2017-05-14T07:24:06.431Z,155
2017-05-14T07:24:46.896Z,155
2017-05-14T07:25:27.396Z,155
2017-05-14T07:26:07.865Z,155
2017-05-14T07:26:48.345Z,155
2017-05-14T07:27:28.809Z,155
2017-05-14T07:28:09.301Z,155
2017-05-14T07:28:49.744Z,155
2017-05-14T07:29:30.239Z,155
2017-05-14T07:30:10.691Z,155
2017-05-14T07:30:51.200Z,155
2017-05-14T07:31:31.686Z,155
2017-05-14T07:32:12.182Z,155
2017-05-14T07:32:52.698Z,155
2017-05-14T07:33:33.169Z,155
2017-05-14T07:34:13.652Z,155
2017-05-14T07:34:54.198Z,155
2017-05-14T07:35:34.716Z,155
2017-05-14T07:36:15.154Z,155
2017-05-14T07:36:55.611Z,155
2017-05-14T07:37:36.091Z,155
2017-05-14T07:38:16.629Z,155
2017-05-14T07:38:57.131Z,155
2017-05-14T07:39:37.612Z,155
2017-05-14T07:40:18.083Z,155
2017-05-14T07:40:58.598Z,155
2017-05-14T07:41:39.025Z,155
2017-05-14T07:42:19.559Z,155
2017-05-14T07:42:59.994Z,155
2017-05-14T07:43:40.545Z,155
2017-05-14T07:44:21.027Z,155
2017-05-14T07:45:01.617Z,155
2017-05-14T07:45:42.081Z,155
2017-05-14T07:46:22.556Z,155
2017-05-14T07:47:03.049Z,155
2017-05-14T07:47:43.529Z,155
2017-05-14T07:48:23.954Z,155
2017-05-14T07:49:04.452Z,155
2017-05-14T07:49:44.932Z,155
2017-05-14T07:50:25.376Z,155
2017-05-14T07:51:05.953Z,155
2017-05-14T07:51:46.372Z,160
2017-05-14T07:52:26.839Z,155
2017-05-14T07:53:07.319Z,155
2017-05-14T07:53:47.857Z,155
2017-05-14T07:54:28.306Z,155
2017-05-14T07:55:08.804Z,155
2017-05-14T07:55:49.341Z,155
2017-05-14T07:56:29.822Z,155
2017-05-14T07:57:10.341Z,155
2017-05-14T07:57:50.848Z,155
2017-05-14T07:58:31.335Z,155
2017-05-14T07:59:11.840Z,155
2017-05-14T07:59:52.295Z,155
2017-05-14T08:00:32.790Z,155
2017-05-14T08:01:13.295Z,155
2017-05-14T08:01:53.770Z,155
2017-05-14T08:02:34.213Z,155
2017-05-14T08:03:14.721Z,155
2017-05-14T08:03:55.223Z,155
2017-05-14T08:04:35.684Z,155
2017-05-14T08:05:16.212Z,155
2017-05-14T08:05:56.714Z,155
2017-05-14T08:06:37.175Z,155
2017-05-14T08:07:17.639Z,155
2017-05-14T08:07:58.107Z,155
2017-05-14T08:08:38.572Z,155
2017-05-14T08:09:19.064Z,155
2017-05-14T08:09:59.518Z,155
2017-05-14T08:10:39.997Z,155
2017-05-14T08:11:20.517Z,155
2017-05-14T08:12:00.998Z,155
2017-05-14T08:12:41.487Z,155
2017-05-14T08:13:21.926Z,155
2017-05-14T08:14:02.407Z,155
2017-05-14T08:14:42.879Z,155
2017-05-14T08:15:23.411Z,155
2017-05-14T08:16:03.863Z,155
2017-05-14T08:16:44.390Z,160
2017-05-14T08:17:24.852Z,160
2017-05-14T08:18:05.360Z,160
2017-05-14T08:18:45.853Z,160
2017-05-14T08:19:26.412Z,160
2017-05-14T08:20:06.872Z,160
2017-05-14T08:20:47.370Z,160
2017-05-14T08:21:27.806Z,160
2017-05-14T08:22:08.274Z,160
2017-05-14T08:22:48.779Z,160
2017-05-14T08:23:29.290Z,160
2017-05-14T08:24:09.756Z,160
2017-05-14T08:24:50.265Z,160
2017-05-14T08:25:30.703Z,165
2017-05-14T08:26:11.202Z,165
2017-05-14T08:26:51.696Z,165
2017-05-14T08:27:32.200Z,165
2017-05-14T08:28:12.681Z,165
2017-05-14T08:28:53.124Z,170
2017-05-14T08:29:33.617Z,170
2017-05-14T08:30:14.148Z,170
2017-05-14T08:30:54.639Z,170
2017-05-14T08:31:35.100Z,170
2017-05-14T08:32:15.635Z,170
2017-05-14T08:32:56.075Z,170
2017-05-14T08:33:36.589Z,175
2017-05-14T08:34:17.099Z,175
2017-05-14T08:34:57.627Z,175
2017-05-14T08:35:38.120Z,175
2017-05-14T08:36:18.609Z,180
2017-05-14T08:36:59.074Z,175
2017-05-14T08:37:39.568Z,175
2017-05-14T08:38:20.053Z,175
2017-05-14T08:39:00.542Z,180
2017-05-14T08:39:41.020Z,180
2017-05-14T08:40:21.575Z,180
2017-05-14T08:41:01.991Z,180
2017-05-14T08:41:42.488Z,180
2017-05-14T08:42:22.984Z,180
2017-05-14T08:43:03.496Z,185
2017-05-14T08:43:43.990Z,185
2017-05-14T08:44:24.470Z,185
2017-05-14T08:45:04.993Z,185
2017-05-14T08:45:45.493Z,185
2017-05-14T08:46:25.967Z,190
2017-05-14T08:47:06.485Z,185
2017-05-14T08:47:46.958Z,190
2017-05-14T08:48:27.441Z,185
2017-05-14T08:49:07.937Z,185
2017-05-14T08:49:48.476Z,185
2017-05-14T08:50:28.977Z,190
2017-05-14T08:51:09.459Z,190
2017-05-14T08:51:49.933Z,190
2017-05-14T08:52:30.395Z,190
2017-05-14T08:53:10.873Z,190
2017-05-14T08:53:51.404Z,190
2017-05-14T08:54:31.937Z,190
2017-05-14T08:55:12.452Z,190
2017-05-14T08:55:52.961Z,190
2017-05-14T08:56:33.435Z,190
2017-05-14T08:57:13.968Z,190
2017-05-14T08:57:54.434Z,190
2017-05-14T08:58:34.970Z,190
2017-05-14T08:59:15.422Z,190
2017-05-14T08:59:55.899Z,190
2017-05-14T09:00:36.403Z,190
2017-05-14T09:01:16.964Z,190
2017-05-14T09:01:57.452Z,190
2017-05-14T09:02:37.972Z,190
2017-05-14T09:03:18.449Z,190
2017-05-14T09:03:58.935Z,190
2017-05-14T09:04:39.417Z,190
2017-05-14T09:05:19.900Z,190
2017-05-14T09:06:00.396Z,190
2017-05-14T09:06:40.865Z,190
2017-05-14T09:07:21.364Z,195
2017-05-14T09:08:01.892Z,195
2017-05-14T09:08:42.369Z,195
2017-05-14T09:09:22.913Z,190
2017-05-14T09:10:03.359Z,190
2017-05-14T09:10:43.894Z,190
2017-05-14T09:11:24.336Z,190
2017-05-14T09:12:04.814Z,190
2017-05-14T09:12:45.282Z,190
2017-05-14T09:13:25.765Z,190
2017-05-14T09:14:06.291Z,190
2017-05-14T09:14:46.731Z,190
2017-05-14T09:15:27.228Z,190
2017-05-14T09:16:07.734Z,190
2017-05-14T09:16:48.301Z,195
2017-05-14T09:17:28.781Z,195
2017-05-14T09:18:09.262Z,195
2017-05-14T09:18:49.782Z,195
2017-05-14T09:19:30.277Z,195
2017-05-14T09:20:10.781Z,200
2017-05-14T09:20:51.248Z,195
2017-05-14T09:21:31.815Z,195
2017-05-14T09:22:12.318Z,200
2017-05-14T09:22:52.779Z,195
2017-05-14T09:23:33.309Z,195
2017-05-14T09:24:13.807Z,195
2017-05-14T09:24:54.308Z,195
2017-05-14T09:25:34.827Z,195
2017-05-14T09:26:15.333Z,195
2017-05-14T09:26:55.827Z,195
2017-05-14T09:27:36.284Z,195
2017-05-14T09:28:16.822Z,195
2017-05-14T09:28:57.410Z,195
2017-05-14T09:29:37.864Z,195
2017-05-14T09:30:18.363Z,195
2017-05-14T09:30:58.844Z,195
2017-05-14T09:31:39.357Z,195
2017-05-14T09:32:19.832Z,195
2017-05-14T09:33:00.316Z,195
2017-05-14T09:33:40.801Z,195
2017-05-14T09:34:21.313Z,195
2017-05-14T09:35:01.782Z,195
2017-05-14T09:35:42.253Z,190